Time;durP1;ratioP1;P1;durP2;ratioP2;P2;SDS_P1;SDS_P2;PMS_P1;PMS_P2;Temp;Humidity;BMP_temperature;BMP_pressure;BME280_temperature;BME280_humidity;BME280_pressure;Samples;Min_cycle;Max_cycle;Signal;HPM_P1;HPM_P2
2024/01/10 00:02:19;;;;;;;16.92;7.95;;;-4.60;99.90;;;;;;4924661;28;87440;-77
2024/01/10 00:04:45;;;;;;;20.20;7.78;;;-4.60;99.90;;;;;;4945827;28;86569;-77
2024/01/10 00:07:11;;;;;;;17.65;8.40;;;-4.60;99.90;;;;;;4944842;28;86989;-78
2024/01/10 00:09:37;;;;;;;18.98;7.82;;;-4.60;99.90;;;;;;4932650;28;87155;-78
2024/01/10 00:12:03;;;;;;;19.08;7.95;;;-4.60;99.90;;;;;;4933335;28;87800;-77
2024/01/10 00:14:29;;;;;;;20.08;8.73;;;-4.70;99.90;;;;;;4943880;28;87803;-77
2024/01/10 00:16:56;;;;;;;19.95;7.70;;;-4.70;99.90;;;;;;4925832;28;88341;-77
2024/01/10 00:19:22;;;;;;;21.25;7.97;;;-4.70;99.90;;;;;;4925614;28;87565;-79
2024/01/10 00:21:48;;;;;;;24.52;8.10;;;-4.70;99.90;;;;;;4946667;28;87549;-78
2024/01/10 00:24:14;;;;;;;21.50;7.82;;;-4.70;99.90;;;;;;4945837;28;88032;-77
2024/01/10 00:26:40;;;;;;;16.85;7.65;;;-4.70;99.90;;;;;;4947801;28;87422;-78
2024/01/10 00:29:05;;;;;;;22.35;7.43;;;-4.70;99.90;;;;;;4943791;28;87836;-78
2024/01/10 00:31:31;;;;;;;17.85;7.68;;;-4.70;99.90;;;;;;4926067;28;88225;-77
2024/01/10 00:33:57;;;;;;;15.38;6.75;;;-4.70;99.90;;;;;;4924439;28;87519;-78
2024/01/10 00:36:23;;;;;;;19.77;7.47;;;-4.70;99.90;;;;;;4943517;28;89033;-80
2024/01/10 00:38:49;;;;;;;23.40;8.13;;;-4.70;99.90;;;;;;4924346;28;87747;-77
2024/01/10 00:41:15;;;;;;;22.67;8.05;;;-4.80;99.90;;;;;;4926515;28;87545;-78
2024/01/10 00:43:41;;;;;;;17.60;7.45;;;-4.80;99.90;;;;;;4942797;28;87287;-79
2024/01/10 00:46:07;;;;;;;17.02;7.40;;;-4.80;99.90;;;;;;4927237;28;87845;-77
2024/01/10 00:48:34;;;;;;;19.27;8.32;;;-4.80;99.90;;;;;;4927273;28;88963;-76
2024/01/10 00:50:59;;;;;;;19.67;8.48;;;-4.80;99.90;;;;;;4925506;28;87231;-78
2024/01/10 00:53:25;;;;;;;19.02;7.57;;;-4.80;99.90;;;;;;4941483;28;86993;-78
2024/01/10 00:55:51;;;;;;;20.75;8.30;;;-4.80;99.90;;;;;;4941941;28;88298;-81
2024/01/10 00:58:18;;;;;;;22.10;8.35;;;-4.80;99.90;;;;;;4925478;28;87468;-78
2024/01/10 01:00:44;;;;;;;30.73;8.75;;;-4.90;99.90;;;;;;4925928;28;88679;-77
2024/01/10 01:03:10;;;;;;;40.28;10.52;;;-4.90;99.90;;;;;;4928553;28;87443;-76
2024/01/10 01:05:36;;;;;;;27.50;9.68;;;-4.90;99.90;;;;;;4927649;28;87948;-78
2024/01/10 01:08:02;;;;;;;26.35;9.07;;;-4.90;99.90;;;;;;4938692;28;89643;-77
2024/01/10 01:10:28;;;;;;;24.67;8.98;;;-4.90;99.90;;;;;;4922647;28;87120;-77
2024/01/10 01:12:55;;;;;;;34.88;9.50;;;-4.90;99.90;;;;;;4928710;28;87154;-79
2024/01/10 01:15:21;;;;;;;30.98;9.73;;;-4.90;99.90;;;;;;4944853;28;87902;-78
2024/01/10 01:17:47;;;;;;;30.67;10.27;;;-5.00;99.90;;;;;;4944187;28;88583;-77
2024/01/10 01:20:14;;;;;;;24.65;9.57;;;-5.00;99.90;;;;;;4924833;28;87568;-79
2024/01/10 01:22:40;;;;;;;24.08;8.57;;;-4.90;99.90;;;;;;4927427;28;87814;-78
2024/01/10 01:25:07;;;;;;;19.45;7.65;;;-5.00;99.90;;;;;;4942349;28;88078;-78
2024/01/10 01:27:33;;;;;;;17.77;7.63;;;-5.00;99.90;;;;;;4944179;28;87691;-79
2024/01/10 01:29:59;;;;;;;24.00;8.68;;;-5.00;99.90;;;;;;4943018;28;86612;-79
2024/01/10 01:32:25;;;;;;;19.13;7.50;;;-5.00;99.90;;;;;;4927136;28;87971;-78
2024/01/10 01:34:51;;;;;;;23.63;8.50;;;-5.00;99.90;;;;;;4927958;28;88946;-77
2024/01/10 01:37:17;;;;;;;19.58;7.97;;;-5.10;99.90;;;;;;4927886;28;87760;-80
2024/01/10 01:39:43;;;;;;;20.35;7.63;;;-5.10;99.90;;;;;;4942525;28;87833;-76
2024/01/10 01:42:09;;;;;;;20.42;7.40;;;-5.10;99.90;;;;;;4927099;28;86748;-79
2024/01/10 01:44:34;;;;;;;18.50;8.25;;;-5.10;99.90;;;;;;4926773;28;87872;-78
2024/01/10 01:47:02;;;;;;;20.70;8.38;;;-5.20;99.90;;;;;;4922742;28;87617;-78
2024/01/10 01:49:29;;;;;;;17.88;7.60;;;-5.20;99.90;;;;;;4942624;28;88162;-77
2024/01/10 01:51:55;;;;;;;19.02;7.90;;;-5.20;99.90;;;;;;4928650;28;87175;-79
2024/01/10 01:54:22;;;;;;;25.33;8.35;;;-5.20;99.90;;;;;;4927949;28;87125;-78
2024/01/10 01:56:49;;;;;;;23.05;8.27;;;-5.20;99.90;;;;;;4941811;28;87947;-78
2024/01/10 01:59:15;;;;;;;19.45;7.97;;;-5.20;99.90;;;;;;4937497;28;87774;-79
2024/01/10 02:01:41;;;;;;;20.55;7.88;;;-5.20;99.90;;;;;;4926847;28;86968;-81
2024/01/10 02:04:07;;;;;;;15.75;7.68;;;-5.20;99.90;;;;;;4920036;28;89186;-78
2024/01/10 02:06:33;;;;;;;18.85;8.30;;;-5.20;99.90;;;;;;4919151;28;87013;-79
2024/01/10 02:09:00;;;;;;;18.67;8.40;;;-5.20;99.90;;;;;;4926684;28;87135;-80
2024/01/10 02:11:27;;;;;;;22.00;7.90;;;-5.30;99.90;;;;;;4943567;28;87406;-77
2024/01/10 02:13:56;;;;;;;17.88;7.38;;;-5.30;99.90;;;;;;4923347;28;89205;-78
2024/01/10 02:16:25;;;;;;;25.67;8.32;;;-5.40;99.90;;;;;;4919632;28;90097;-78
2024/01/10 02:18:51;;;;;;;19.38;7.70;;;-5.40;99.90;;;;;;4923281;28;87330;-78
2024/01/10 02:21:21;;;;;;;26.00;8.43;;;-5.40;99.90;;;;;;4923364;28;87194;-77
2024/01/10 02:23:47;;;;;;;22.15;7.82;;;-5.40;99.90;;;;;;4920433;28;87759;-78
2024/01/10 02:26:14;;;;;;;18.05;8.00;;;-5.40;99.90;;;;;;4941429;28;87322;-80
2024/01/10 02:28:40;;;;;;;18.17;7.03;;;-5.40;99.90;;;;;;4940637;28;87230;-75
2024/01/10 02:31:07;;;;;;;21.75;7.95;;;-5.40;99.90;;;;;;4940699;28;86845;-77
2024/01/10 02:33:32;;;;;;;19.05;7.72;;;-5.40;99.90;;;;;;4916518;28;87372;-79
2024/01/10 02:35:58;;;;;;;15.52;7.05;;;-5.40;99.90;;;;;;4942753;28;87877;-79
2024/01/10 02:38:24;;;;;;;22.60;8.32;;;-5.40;99.90;;;;;;4936129;28;88123;-78
2024/01/10 02:40:50;;;;;;;20.70;7.75;;;-5.40;99.90;;;;;;4938932;28;87123;-77
2024/01/10 02:43:16;;;;;;;17.25;8.00;;;-5.40;99.90;;;;;;4942898;28;87515;-77
2024/01/10 02:45:42;;;;;;;18.98;8.10;;;-5.50;99.90;;;;;;4944026;28;87161;-78
2024/01/10 02:48:08;;;;;;;22.58;9.50;;;-5.50;99.90;;;;;;4941477;28;87874;-80
2024/01/10 02:50:35;;;;;;;19.45;7.63;;;-5.50;99.90;;;;;;4923012;28;87099;-77
2024/01/10 02:53:01;;;;;;;20.25;7.45;;;-5.50;99.90;;;;;;4936601;28;87292;-78
2024/01/10 02:55:29;;;;;;;21.88;8.20;;;-5.60;99.90;;;;;;4937290;28;86533;-80
2024/01/10 02:57:55;;;;;;;18.88;8.45;;;-5.60;99.90;;;;;;4939152;28;87942;-77
2024/01/10 03:00:21;;;;;;;21.23;8.15;;;-5.60;99.90;;;;;;4922332;28;87288;-78
2024/01/10 03:02:48;;;;;;;17.77;7.88;;;-5.60;99.90;;;;;;4919345;28;88614;-78
2024/01/10 03:05:14;;;;;;;20.65;7.82;;;-5.60;99.90;;;;;;4918816;28;87363;-79
2024/01/10 03:07:41;;;;;;;19.50;7.93;;;-5.60;99.90;;;;;;4918529;28;87169;-78
2024/01/10 03:10:08;;;;;;;17.38;7.65;;;-5.70;99.90;;;;;;4918214;28;87212;-78
2024/01/10 03:12:36;;;;;;;21.98;8.20;;;-5.60;99.90;;;;;;4937928;28;88763;-79
2024/01/10 03:15:03;;;;;;;23.38;8.98;;;-5.60;99.90;;;;;;4941488;28;87430;-78
2024/01/10 03:17:29;;;;;;;17.17;7.78;;;-5.60;99.90;;;;;;4938227;28;87670;-77
2024/01/10 03:19:56;;;;;;;19.52;8.45;;;-5.60;99.90;;;;;;4934488;28;86501;-77
2024/01/10 03:22:22;;;;;;;21.27;7.28;;;-5.70;99.90;;;;;;4923975;28;88185;-78
2024/01/10 03:24:47;;;;;;;20.38;8.70;;;-5.60;99.90;;;;;;4921554;28;86917;-77
2024/01/10 03:27:13;;;;;;;19.52;8.52;;;-5.70;99.90;;;;;;4939497;28;89408;-77
2024/01/10 03:29:39;;;;;;;21.23;8.40;;;-5.70;99.90;;;;;;4983398;23;87664;-77
2024/01/10 03:32:05;;;;;;;22.90;8.40;;;-5.70;99.90;;;;;;4976930;28;87937;-79
2024/01/10 03:34:31;;;;;;;19.42;8.60;;;-5.80;99.90;;;;;;4963875;28;87097;-79
2024/01/10 03:36:57;;;;;;;29.15;8.68;;;-5.80;99.90;;;;;;4959986;28;87772;-79
2024/01/10 03:39:23;;;;;;;20.33;8.63;;;-5.80;99.90;;;;;;4980461;28;87414;-78
2024/01/10 03:41:49;;;;;;;23.17;8.95;;;-5.80;99.90;;;;;;4979032;28;87590;-80
2024/01/10 03:44:14;;;;;;;23.50;8.85;;;-5.80;99.90;;;;;;4962974;28;87099;-78
2024/01/10 03:46:40;;;;;;;22.60;9.73;;;-5.80;99.90;;;;;;4977378;28;87104;-80
2024/01/10 03:49:07;;;;;;;21.10;8.82;;;-5.80;99.90;;;;;;4976395;28;87239;-77
2024/01/10 03:51:34;;;;;;;18.98;7.55;;;-5.90;99.90;;;;;;4977033;28;88165;-79
2024/01/10 03:54:00;;;;;;;18.63;7.50;;;-5.90;99.90;;;;;;4973448;28;87351;-79
2024/01/10 03:56:26;;;;;;;23.65;9.20;;;-5.90;99.90;;;;;;4956525;28;87168;-76
2024/01/10 03:58:53;;;;;;;23.08;9.02;;;-5.90;99.90;;;;;;4948627;28;87281;-77
2024/01/10 04:01:23;;;;;;;21.05;8.93;;;-5.90;99.90;;;;;;4954885;28;89305;-77
2024/01/10 04:03:49;;;;;;;24.33;9.45;;;-5.90;99.90;;;;;;4962153;28;88033;-78
2024/01/10 04:06:15;;;;;;;25.63;9.18;;;-5.80;99.90;;;;;;4978653;28;87130;-79
2024/01/10 04:12:03;;;;;;;25.30;8.63;;;-5.80;99.90;;;;;;4977216;28;87799;-78
2024/01/10 04:14:29;;;;;;;21.98;9.25;;;-5.80;99.90;;;;;;4965792;28;87205;-80
2024/01/10 04:16:55;;;;;;;20.10;8.10;;;-5.80;99.90;;;;;;4982017;28;88155;-77
2024/01/10 04:19:21;;;;;;;22.88;8.35;;;-5.80;99.90;;;;;;4961714;28;87764;-77
2024/01/10 04:21:47;;;;;;;21.90;7.90;;;-5.80;99.90;;;;;;4959003;28;87841;-78
2024/01/10 04:24:12;;;;;;;24.52;8.55;;;-5.80;99.90;;;;;;4964333;28;87786;-79
2024/01/10 04:26:39;;;;;;;19.10;8.23;;;-5.80;99.90;;;;;;4960299;28;87893;-77
2024/01/10 04:29:04;;;;;;;19.90;8.13;;;-5.70;99.90;;;;;;4952129;28;86827;-77
2024/01/10 04:31:30;;;;;;;15.90;7.65;;;-5.70;99.90;;;;;;4962001;28;88334;-77
2024/01/10 04:33:56;;;;;;;24.58;8.95;;;-5.70;99.90;;;;;;4981494;28;86552;-77
2024/01/10 04:36:23;;;;;;;17.85;7.93;;;-5.70;99.90;;;;;;4966178;28;87722;-78
2024/01/10 04:38:50;;;;;;;18.00;8.02;;;-5.70;99.90;;;;;;4962090;28;87271;-78
2024/01/10 04:41:16;;;;;;;15.30;6.68;;;-5.70;99.90;;;;;;4997885;22;88264;-78
2024/01/10 04:43:43;;;;;;;17.88;7.60;;;-5.70;99.90;;;;;;4950918;28;88517;-80
2024/01/10 04:46:10;;;;;;;19.10;7.78;;;-5.70;99.90;;;;;;4935263;28;87568;-77
2024/01/10 04:48:36;;;;;;;20.17;7.93;;;-5.80;99.90;;;;;;4948903;28;87102;-79
2024/01/10 04:51:02;;;;;;;20.70;8.38;;;-5.70;99.90;;;;;;4954047;28;87748;-78
2024/01/10 04:53:30;;;;;;;18.27;7.63;;;-5.70;99.90;;;;;;4950358;28;88011;-79
2024/01/10 04:55:56;;;;;;;20.88;7.97;;;-5.70;99.90;;;;;;4926673;28;86987;-78
2024/01/10 04:58:22;;;;;;;20.25;7.20;;;-5.70;99.90;;;;;;4935514;28;87015;-78
2024/01/10 05:00:48;;;;;;;21.23;7.90;;;-5.70;99.90;;;;;;4935513;28;87687;-78
2024/01/10 05:03:15;;;;;;;27.10;7.95;;;-5.70;99.90;;;;;;4953568;28;88983;-78
2024/01/10 05:05:41;;;;;;;20.25;7.20;;;-5.80;99.90;;;;;;4933727;28;88057;-79
2024/01/10 05:08:07;;;;;;;22.35;8.27;;;-5.70;99.90;;;;;;4934851;28;87565;-77
2024/01/10 05:10:34;;;;;;;18.00;7.53;;;-5.70;99.90;;;;;;4935113;28;90381;-79
2024/01/10 05:13:00;;;;;;;18.90;8.10;;;-5.80;99.90;;;;;;4936686;28;87173;-79
2024/01/10 05:15:26;;;;;;;19.95;7.35;;;-5.80;99.90;;;;;;4952653;28;87307;-77
2024/01/10 05:17:52;;;;;;;19.95;8.18;;;-5.80;99.90;;;;;;4945942;28;87726;-77
2024/01/10 05:20:18;;;;;;;15.63;7.32;;;-5.80;99.90;;;;;;4935690;28;88161;-79
2024/01/10 05:22:44;;;;;;;16.13;7.28;;;-5.80;99.90;;;;;;4930600;28;87716;-77
2024/01/10 05:25:10;;;;;;;16.35;7.53;;;-5.80;99.90;;;;;;4953008;28;87048;-80
2024/01/10 05:27:36;;;;;;;20.60;8.20;;;-5.80;99.90;;;;;;4952348;28;87105;-77
2024/01/10 05:30:02;;;;;;;17.60;7.97;;;-5.70;99.90;;;;;;4935387;28;88126;-77
2024/01/10 05:32:29;;;;;;;19.67;7.00;;;-5.70;99.90;;;;;;4949366;28;87288;-78
2024/01/10 05:34:55;;;;;;;23.50;8.27;;;-5.70;99.90;;;;;;4948535;28;87344;-78
2024/01/10 05:37:21;;;;;;;20.55;8.13;;;-5.70;99.90;;;;;;4950747;28;87556;-78
2024/01/10 05:39:48;;;;;;;15.40;7.70;;;-5.70;99.90;;;;;;4950631;28;87970;-77
2024/01/10 05:42:14;;;;;;;18.63;7.32;;;-5.70;99.90;;;;;;4933949;28;87876;-77
2024/01/10 05:44:40;;;;;;;17.48;7.47;;;-5.70;99.90;;;;;;4935653;28;87200;-78
2024/01/10 05:47:07;;;;;;;19.90;7.95;;;-5.70;99.90;;;;;;4937161;28;86899;-78
2024/01/10 05:49:33;;;;;;;21.67;8.15;;;-5.70;99.90;;;;;;4949915;28;88654;-78
2024/01/10 05:51:59;;;;;;;21.63;8.40;;;-5.70;99.90;;;;;;4931349;28;87261;-77
2024/01/10 05:54:25;;;;;;;22.33;8.45;;;-5.60;99.90;;;;;;4951674;28;88217;-77
2024/01/10 05:56:51;;;;;;;26.17;8.45;;;-5.60;99.90;;;;;;4934635;28;87419;-78
2024/01/10 05:59:16;;;;;;;20.05;7.90;;;-5.70;99.90;;;;;;4949818;28;87788;-78
2024/01/10 06:01:43;;;;;;;19.92;8.00;;;-5.60;99.90;;;;;;4951935;28;87778;-79
2024/01/10 06:04:09;;;;;;;17.90;7.57;;;-5.60;99.90;;;;;;4951487;28;87158;-77
2024/01/10 06:06:35;;;;;;;20.10;7.10;;;-5.60;99.90;;;;;;4934923;28;87462;-79
2024/01/10 06:09:01;;;;;;;22.00;8.07;;;-5.60;99.90;;;;;;4951905;28;87628;-76
2024/01/10 06:11:29;;;;;;;19.77;7.53;;;-5.60;99.90;;;;;;4951031;28;87776;-78
2024/01/10 06:13:57;;;;;;;18.02;7.90;;;-5.60;99.90;;;;;;4935326;28;87497;-78
2024/01/10 06:17:09;;;;;;;16.33;7.97;;;-5.60;99.90;;;;;;4952002;28;87793;-79
2024/01/10 06:19:35;;;;;;;19.70;7.70;;;-5.50;99.90;;;;;;4942598;28;89509;-77
2024/01/10 06:22:02;;;;;;;21.25;8.95;;;-5.60;99.90;;;;;;4951626;28;87663;-78
2024/01/10 06:24:28;;;;;;;17.23;7.28;;;-5.60;99.90;;;;;;4932345;28;87098;-78
2024/01/10 06:26:54;;;;;;;19.88;8.02;;;-5.60;99.90;;;;;;4928227;28;87863;-78
2024/01/10 06:29:20;;;;;;;21.52;8.23;;;-5.50;99.90;;;;;;4949707;28;87272;-77
2024/01/10 06:31:47;;;;;;;23.00;8.10;;;-5.60;99.90;;;;;;4922101;28;87557;-77
2024/01/10 06:34:13;;;;;;;21.67;8.45;;;-5.60;99.90;;;;;;4948299;28;87514;-78
2024/01/10 06:36:39;;;;;;;22.50;8.85;;;-5.60;99.90;;;;;;4932382;28;90534;-79
2024/01/10 06:39:05;;;;;;;17.50;7.22;;;-5.60;99.90;;;;;;4951646;28;86983;-78
2024/01/10 06:41:31;;;;;;;17.00;7.75;;;-5.60;99.90;;;;;;4950081;28;87194;-79
2024/01/10 06:44:21;;;;;;;20.58;7.20;;;-5.60;99.90;;;;;;4933133;28;87904;-78
2024/01/10 06:46:47;;;;;;;20.90;8.10;;;-5.60;99.90;;;;;;4932177;28;87698;-76
2024/01/10 06:49:13;;;;;;;20.17;7.82;;;-5.60;99.90;;;;;;4950731;28;87523;-79
2024/01/10 06:55:01;;;;;;;27.27;7.72;;;-5.60;99.90;;;;;;4951212;28;87431;-77
2024/01/10 06:57:27;;;;;;;25.73;8.77;;;-5.60;99.90;;;;;;4950615;28;87581;-77
2024/01/10 06:59:53;;;;;;;20.88;7.25;;;-5.60;99.90;;;;;;4950786;28;87284;-78
2024/01/10 07:02:19;;;;;;;16.75;7.90;;;-5.60;99.90;;;;;;4930509;28;87908;-77
2024/01/10 07:04:47;;;;;;;20.13;7.85;;;-5.60;99.90;;;;;;4952189;28;87591;-78
2024/01/10 07:07:14;;;;;;;22.13;7.65;;;-5.70;99.90;;;;;;4929655;28;87223;-77
2024/01/10 07:09:40;;;;;;;20.60;7.88;;;-5.70;99.90;;;;;;4932235;28;88521;-80
2024/01/10 07:12:07;;;;;;;23.52;8.52;;;-5.70;99.90;;;;;;4933846;28;87885;-77
2024/01/10 07:14:33;;;;;;;19.08;7.90;;;-5.60;99.90;;;;;;4950042;28;87644;-78
2024/01/10 07:20:23;;;;;;;17.10;6.88;;;-5.70;99.90;;;;;;4952344;28;87359;-77
2024/01/10 07:22:51;;;;;;;20.30;8.55;;;-5.70;99.90;;;;;;4956796;28;87066;-76
2024/01/10 07:25:17;;;;;;;24.27;8.70;;;-5.70;99.90;;;;;;4955862;28;87188;-77
2024/01/10 07:27:44;;;;;;;24.02;8.18;;;-5.70;99.90;;;;;;4955567;28;85987;-79
2024/01/10 07:30:13;;;;;;;19.52;7.90;;;-5.70;99.90;;;;;;4954338;28;86993;-77
2024/01/10 07:32:41;;;;;;;19.27;8.15;;;-5.70;99.90;;;;;;4951633;28;87636;-76
2024/01/10 07:35:09;;;;;;;20.67;8.10;;;-5.70;99.90;;;;;;4954064;28;88006;-77
2024/01/10 07:37:44;;;;;;;17.95;8.43;;;-5.70;99.90;;;;;;4954369;28;87078;-79
2024/01/10 07:40:13;;;;;;;22.10;8.52;;;-5.70;99.90;;;;;;4946278;28;87245;-80
2024/01/10 07:42:39;;;;;;;22.42;8.80;;;-5.70;99.90;;;;;;4936307;28;87496;-78
2024/01/10 07:45:06;;;;;;;21.58;7.57;;;-5.70;99.90;;;;;;4937255;28;87042;-78
2024/01/10 07:47:34;;;;;;;22.75;8.82;;;-5.70;99.90;;;;;;4952614;28;87021;-81
2024/01/10 07:49:59;;;;;;;16.88;7.47;;;-5.70;99.90;;;;;;4955244;28;87930;-76
2024/01/10 07:52:27;;;;;;;19.27;8.85;;;-5.70;99.90;;;;;;4952220;28;86572;-77
2024/01/10 07:54:53;;;;;;;20.20;8.68;;;-5.70;99.90;;;;;;4937099;28;87300;-79
2024/01/10 07:57:19;;;;;;;22.17;8.15;;;-5.70;99.90;;;;;;4958230;28;87069;-77
2024/01/10 07:59:45;;;;;;;18.08;8.20;;;-5.70;99.90;;;;;;4938993;28;88833;-78
2024/01/10 08:02:11;;;;;;;23.02;8.80;;;-5.80;99.90;;;;;;4956443;28;88523;-76
2024/01/10 08:04:37;;;;;;;20.50;8.75;;;-5.80;99.90;;;;;;4957914;28;87047;-78
2024/01/10 08:07:03;;;;;;;20.85;8.45;;;-5.80;99.90;;;;;;4955816;28;87840;-80
2024/01/10 08:09:29;;;;;;;37.30;8.82;;;-5.80;99.90;;;;;;4937992;28;89341;-79
2024/01/10 08:11:55;;;;;;;21.95;8.63;;;-5.80;99.90;;;;;;4953238;28;87278;-76
2024/01/10 08:14:21;;;;;;;20.10;8.20;;;-5.80;99.90;;;;;;4936241;28;87217;-79
2024/01/10 08:16:47;;;;;;;21.90;8.27;;;-5.80;99.90;;;;;;4933488;28;86349;-79
2024/01/10 08:19:15;;;;;;;25.00;9.40;;;-5.80;99.90;;;;;;4951986;28;87921;-79
2024/01/10 08:21:41;;;;;;;23.23;8.68;;;-5.80;99.90;;;;;;4935805;28;86763;-77
2024/01/10 08:24:06;;;;;;;28.77;8.88;;;-5.70;99.90;;;;;;4938227;28;89255;-79
2024/01/10 08:26:32;;;;;;;25.05;8.70;;;-5.70;99.90;;;;;;4954992;28;87205;-77
2024/01/10 08:28:59;;;;;;;22.33;8.63;;;-5.60;99.90;;;;;;4953991;28;87078;-79
2024/01/10 08:31:26;;;;;;;21.75;7.95;;;-5.60;99.90;;;;;;4935624;28;87375;-78
2024/01/10 08:33:53;;;;;;;23.20;8.30;;;-5.50;99.90;;;;;;4935947;28;87968;-78
2024/01/10 08:36:19;;;;;;;20.17;8.70;;;-5.50;99.90;;;;;;4954252;28;87319;-78
2024/01/10 08:38:44;;;;;;;25.45;9.50;;;-5.50;99.90;;;;;;4937178;28;87485;-78
2024/01/10 08:41:12;;;;;;;23.45;8.75;;;-5.40;99.90;;;;;;4935801;28;87681;-77
2024/01/10 08:43:38;;;;;;;23.30;8.38;;;-5.30;99.90;;;;;;4935592;28;87323;-78
2024/01/10 08:46:04;;;;;;;23.60;8.18;;;-5.30;99.90;;;;;;4951289;28;87105;-80
2024/01/10 08:48:30;;;;;;;20.48;8.85;;;-5.30;99.90;;;;;;4951684;28;88756;-76
2024/01/10 08:50:56;;;;;;;17.45;8.07;;;-5.20;99.90;;;;;;4936541;28;88413;-76
2024/01/10 08:53:24;;;;;;;25.17;8.80;;;-5.20;99.90;;;;;;4947149;28;87003;-78
2024/01/10 08:55:50;;;;;;;27.15;8.55;;;-5.10;99.90;;;;;;4929534;28;87790;-76
2024/01/10 09:03:27;;;;;;;20.17;7.95;;;-4.90;99.90;;;;;;5177352;23;87667;-79
2024/01/10 09:05:53;;;;;;;20.65;8.32;;;-4.90;99.90;;;;;;4946129;28;86507;-77
2024/01/10 09:08:19;;;;;;;23.45;8.77;;;-4.80;99.90;;;;;;5011564;22;88467;-79
2024/01/10 09:10:49;;;;;;;24.50;8.73;;;-4.80;99.90;;;;;;4937410;28;88168;-78
2024/01/10 09:13:15;;;;;;;25.95;9.32;;;-4.70;99.90;;;;;;4966146;28;88311;-76
2024/01/10 09:15:42;;;;;;;24.13;8.48;;;-4.70;99.90;;;;;;4952244;28;87421;-80
2024/01/10 09:18:08;;;;;;;27.88;8.25;;;-4.60;99.90;;;;;;4954674;28;88266;-76
2024/01/10 09:20:35;;;;;;;25.40;9.18;;;-4.60;99.90;;;;;;5141219;22;88685;-79
2024/01/10 09:23:04;;;;;;;23.48;8.68;;;-4.50;99.90;;;;;;4960052;28;87270;-77
2024/01/10 09:25:30;;;;;;;23.25;8.80;;;-4.40;99.90;;;;;;5299513;22;88122;-78
2024/01/10 09:27:56;;;;;;;21.23;8.27;;;-4.40;99.90;;;;;;4943568;28;89412;-81
2024/01/10 09:30:23;;;;;;;24.98;9.10;;;-4.30;99.90;;;;;;4947332;28;86619;-80
2024/01/10 09:32:49;;;;;;;20.08;8.75;;;-4.20;99.90;;;;;;4951529;28;86993;-77
2024/01/10 09:35:15;;;;;;;27.52;8.85;;;-4.10;99.90;;;;;;4943390;28;86734;-78
2024/01/10 09:37:42;;;;;;;24.75;9.32;;;-4.10;99.90;;;;;;4948030;28;88289;-78
2024/01/10 09:40:08;;;;;;;24.00;10.35;;;-4.00;99.90;;;;;;4949399;28;87709;-79
2024/01/10 09:42:36;;;;;;;24.88;8.77;;;-3.90;99.90;;;;;;4951349;28;87711;-79
2024/01/10 09:45:05;;;;;;;23.52;9.85;;;-3.80;99.90;;;;;;4947722;28;86748;-81
2024/01/10 09:47:32;;;;;;;23.23;8.88;;;-3.70;99.90;;;;;;4931015;28;87574;-78
2024/01/10 09:49:57;;;;;;;21.05;8.48;;;-3.60;99.90;;;;;;4931511;28;89666;-80
2024/01/10 09:52:24;;;;;;;27.40;9.20;;;-3.50;99.90;;;;;;4934183;28;87212;-77
2024/01/10 09:54:54;;;;;;;19.60;8.73;;;-3.40;99.90;;;;;;4948230;28;86776;-82
2024/01/10 09:57:23;;;;;;;24.48;8.85;;;-3.30;99.90;;;;;;4930322;28;87504;-76
2024/01/10 09:59:51;;;;;;;24.27;9.57;;;-3.20;99.90;;;;;;4943453;28;87795;-80
2024/01/10 10:02:18;;;;;;;24.52;9.65;;;-3.10;99.90;;;;;;4943426;28;88269;-80
2024/01/10 10:04:56;;;;;;;25.98;9.48;;;-3.00;99.90;;;;;;4931087;28;87291;-80
2024/01/10 10:07:22;;;;;;;26.05;8.80;;;-2.90;99.90;;;;;;4949997;28;87791;-79
2024/01/10 10:09:48;;;;;;;23.15;8.93;;;-2.90;99.90;;;;;;4949632;28;88075;-76
2024/01/10 10:12:14;;;;;;;20.83;8.80;;;-2.80;99.90;;;;;;4947779;28;88179;-78
2024/01/10 10:14:39;;;;;;;21.63;8.98;;;-2.70;99.90;;;;;;4936201;28;87193;-78
2024/01/10 10:17:31;;;;;;;22.27;9.55;;;-2.60;99.90;;;;;;4934336;28;89560;-82
2024/01/10 10:20:39;;;;;;;27.45;9.45;;;-2.50;99.90;;;;;;5010128;22;87576;-86
2024/01/10 10:23:17;;;;;;;21.48;9.80;;;-2.30;99.90;;;;;;4934531;28;87134;-86
2024/01/10 10:25:54;;;;;;;23.60;9.73;;;-2.20;99.90;;;;;;4933300;28;86877;-86
2024/01/10 10:28:21;;;;;;;19.23;8.80;;;-2.20;99.90;;;;;;4926640;28;88615;-87
2024/01/10 10:30:55;;;;;;;24.80;11.15;;;-2.10;99.90;;;;;;4933639;28;89768;-87
2024/01/10 10:33:22;;;;;;;24.73;9.05;;;-2.00;99.90;;;;;;4924286;28;87069;-87
2024/01/10 10:35:51;;;;;;;23.27;10.07;;;-1.90;99.90;;;;;;4933307;28;88915;-86
2024/01/10 10:38:23;;;;;;;25.40;10.43;;;-1.80;99.90;;;;;;4937121;28;87227;-86
2024/01/10 10:40:50;;;;;;;24.20;10.52;;;-1.70;99.90;;;;;;4930773;28;89064;-87
2024/01/10 10:43:27;;;;;;;25.17;9.75;;;-1.60;99.90;;;;;;4920028;28;87211;-87
2024/01/10 10:45:55;;;;;;;26.77;10.27;;;-1.50;99.90;;;;;;4924082;28;87024;-87
2024/01/10 10:48:24;;;;;;;27.55;10.50;;;-1.40;99.70;;;;;;4942112;28;88272;-87
2024/01/10 10:51:41;;;;;;;28.25;10.00;;;-1.30;99.40;;;;;;4929159;28;93243;-87
2024/01/10 10:54:28;;;;;;;23.02;8.90;;;-1.30;98.30;;;;;;4909340;28;88031;-87
2024/01/10 10:57:06;;;;;;;23.35;9.05;;;-1.20;97.50;;;;;;4910917;28;91061;-87
2024/01/10 10:59:47;;;;;;;20.58;9.68;;;-1.20;97.50;;;;;;4918833;28;88391;-87
2024/01/10 11:02:20;;;;;;;20.75;9.18;;;-1.10;96.70;;;;;;4902234;28;86892;-87
2024/01/10 11:04:54;;;;;;;25.95;10.27;;;-1.00;97.40;;;;;;4940635;28;87142;-87
2024/01/10 11:07:21;;;;;;;22.30;9.55;;;-1.00;97.00;;;;;;4905552;28;87613;-87
2024/01/10 11:09:50;;;;;;;22.88;9.50;;;-0.90;97.20;;;;;;4910835;28;89440;-87
2024/01/10 11:12:55;;;;;;;27.30;10.30;;;-0.80;97.20;;;;;;4934125;28;89395;-86
2024/01/10 11:16:02;;;;;;;21.88;9.93;;;-0.60;97.60;;;;;;4919811;28;87634;-87
2024/01/10 11:18:49;;;;;;;23.38;9.45;;;-0.50;97.40;;;;;;4939336;28;87629;-87
2024/01/10 11:24:40;;;;;;;25.45;10.20;;;-0.20;96.90;;;;;;5036233;23;92957;-76
2024/01/10 11:27:15;;;;;;;25.02;10.48;;;-0.10;95.20;;;;;;4942807;23;87770;-78
2024/01/10 11:29:43;;;;;;;32.05;11.88;;;-0.10;96.00;;;;;;4920163;28;87725;-76
2024/01/10 11:32:24;;;;;;;24.77;10.25;;;0.10;94.80;;;;;;4943408;28;87144;-79
2024/01/10 11:34:53;;;;;;;23.23;9.70;;;0.10;94.60;;;;;;4930766;28;87152;-77
2024/01/10 11:37:19;;;;;;;27.92;10.10;;;0.20;94.90;;;;;;4935431;28;87239;-80
2024/01/10 11:42:25;;;;;;;20.92;9.32;;;0.40;93.80;;;;;;5096543;22;88473;-79
2024/01/10 11:44:52;;;;;;;24.20;10.13;;;0.40;94.00;;;;;;4896975;23;1613106;-78
2024/01/10 11:49:56;;;;;;;24.42;9.38;;;0.60;93.90;;;;;;5252368;22;88843;-79
2024/01/10 11:52:25;;;;;;;28.38;11.15;;;0.70;93.70;;;;;;4955094;28;87492;-77
2024/01/10 11:54:51;;;;;;;22.17;9.80;;;0.80;94.00;;;;;;4938999;28;88036;-78
2024/01/10 12:56:38;;;;;;;20.48;10.23;;;2.60;90.80;;;;;;5016570;27;85711;-76
2024/01/10 12:59:04;;;;;;;24.27;10.80;;;2.80;91.40;;;;;;5001926;27;86709;-78
2024/01/10 13:01:30;;;;;;;29.42;11.57;;;3.00;87.60;;;;;;4994437;28;86199;-77
2024/01/10 13:03:56;;;;;;;26.85;11.23;;;3.10;87.50;;;;;;4998902;27;87410;-78
2024/01/10 13:06:22;;;;;;;31.50;11.52;;;3.30;86.40;;;;;;5011182;27;86467;-81
2024/01/10 13:08:48;;;;;;;26.40;11.95;;;3.50;84.70;;;;;;5014045;27;86109;-85
2024/01/10 13:11:14;;;;;;;28.25;12.02;;;3.70;85.70;;;;;;5013417;27;86208;-80
2024/01/10 13:13:43;;;;;;;28.60;12.82;;;4.00;86.70;;;;;;5011417;27;86567;-81
2024/01/10 13:16:10;;;;;;;27.50;11.90;;;4.20;84.60;;;;;;5005626;27;87132;-77
2024/01/10 13:18:37;;;;;;;26.73;11.95;;;4.40;84.00;;;;;;5016874;27;86191;-86
2024/01/10 13:21:04;;;;;;;29.92;12.20;;;4.60;80.50;;;;;;5016724;27;85869;-78
2024/01/10 13:23:29;;;;;;;29.25;12.32;;;4.70;80.20;;;;;;5014642;27;86659;-76
2024/01/10 13:25:55;;;;;;;25.55;12.07;;;4.70;80.10;;;;;;5010638;27;86781;-77
2024/01/10 13:28:21;;;;;;;25.85;12.30;;;4.90;79.30;;;;;;5014674;27;87483;-80
2024/01/10 13:30:47;;;;;;;23.33;11.50;;;5.00;77.80;;;;;;5015783;27;86071;-80
2024/01/10 13:33:13;;;;;;;24.50;12.55;;;5.00;75.00;;;;;;5015633;27;87333;-77
2024/01/10 13:35:39;;;;;;;25.17;12.63;;;5.10;70.90;;;;;;5021334;27;86962;-84
2024/01/10 13:38:05;;;;;;;26.95;12.27;;;5.10;72.20;;;;;;5025849;27;86298;-77
2024/01/10 13:40:33;;;;;;;27.50;12.55;;;5.20;70.40;;;;;;5018239;27;87233;-78
2024/01/10 13:43:03;;;;;;;24.30;12.10;;;5.30;69.40;;;;;;5016960;27;87810;-78
2024/01/10 13:45:29;;;;;;;24.33;11.73;;;5.30;68.20;;;;;;5015165;28;87270;-80
2024/01/10 13:48:00;;;;;;;25.70;12.30;;;5.30;68.10;;;;;;5018052;27;86940;-79
2024/01/10 13:50:27;;;;;;;24.15;12.25;;;5.40;69.70;;;;;;5020420;27;86681;-77
2024/01/10 13:52:53;;;;;;;24.10;12.55;;;5.50;67.90;;;;;;5016130;28;88813;-76
2024/01/10 13:55:20;;;;;;;22.85;12.35;;;5.70;68.00;;;;;;5019574;28;86923;-79
2024/01/10 13:57:46;;;;;;;27.17;12.57;;;5.80;67.60;;;;;;5022896;27;86258;-78
2024/01/10 14:00:14;;;;;;;26.23;11.90;;;6.00;66.00;;;;;;5018216;27;86595;-77
2024/01/10 14:02:41;;;;;;;23.92;12.30;;;6.00;66.10;;;;;;5019547;27;87437;-79